パラオ の空港の天気 - METARとTAF

パラオ国際空港 ( PTRO / ROR ) - パラオ アイライ州
飛行場実況気象(Metar)
観測時間01/22 02:50 PWT (01/21 17:50 UTC)
風向・風速東 2m/s
視程10km以上
天気現象弱いしゅう雨
全天の8割程度の雲 雲底高度 460m
全天を覆う雲 雲底高度 8530m
気温26℃
湿度94%
気圧1005hPa
METARPTRO 211750Z 08004KT 12SM -SHRA BKN015CB OVC280 26/25 A2968 RMK CB ALQDS
過去の天気等 Google飛行場航空写真 Wunderground天気予報

過去48時間のMETAR

飛行場予報(TAF)
発表時間: 1/22 02:26 PWT (1/21 17:26 UTC)
予報対象時間: 22日3時 PWT ~ 23日3時 PWT
風向・風速東 6m/s
視程10km以上
天気現象周辺でしゅう雨
全天の4割程度の雲 雲底高度 490m
全天の4割程度の雲 雲底高度 1,520m
全天の8割程度の雲 雲底高度 3,660m
22日3時 PWT ~ 22日6時 PWT に一時的に
視程8,050m
天気現象しゅう雨
全天の8割程度の雲 雲底高度 460m
全天の8割程度の雲 雲底高度 1,220m
PTRO 211726Z 2118/2218 08011KT P6SM VCSH SCT016 SCT050 BKN120
TEMPO 2118/2121 5SM SHRA BKN015 BKN040